createdAt,value
2019-03-06T00:02:21.842Z,99649.98
2019-03-06T00:04:49.916Z,99650.48
2019-03-06T00:07:17.974Z,99646.39
2019-03-06T00:09:46.243Z,99641.69
2019-03-06T00:12:14.783Z,99643.48
2019-03-06T00:14:43.161Z,99643.30
2019-03-06T00:17:12.974Z,99642.33
2019-03-06T00:19:41.015Z,99640.70
2019-03-06T00:22:09.097Z,99636.61
2019-03-06T00:24:38.503Z,99635.47
2019-03-06T00:27:06.830Z,99630.91
2019-03-06T00:29:37.471Z,99623.08
2019-03-06T00:32:05.864Z,99621.78
2019-03-06T00:34:34.072Z,99613.45
2019-03-06T00:37:03.288Z,99623.73
2019-03-06T00:39:39.652Z,99613.28
2019-03-06T00:42:07.875Z,99619.98
2019-03-06T00:44:35.955Z,99612.45
2019-03-06T00:47:04.029Z,99620.13
2019-03-06T00:49:32.217Z,99620.62
2019-03-06T00:52:01.355Z,99628.11
2019-03-06T00:54:29.562Z,99615.72
2019-03-06T00:56:58.730Z,99614.91
2019-03-06T00:59:26.790Z,99620.61
2019-03-06T01:01:54.959Z,99618.17
2019-03-06T01:04:23.033Z,99603.16
2019-03-06T01:06:51.292Z,99605.93
2019-03-06T01:09:21.394Z,99602.02
2019-03-06T01:11:49.441Z,99600.05
2019-03-06T01:14:17.473Z,99597.78
2019-03-06T01:16:48.880Z,99602.80
2019-03-06T01:19:17.078Z,99594.34
2019-03-06T01:21:46.234Z,99588.64
2019-03-06T01:24:14.332Z,99583.75
2019-03-06T01:26:43.517Z,99586.85
2019-03-06T01:29:11.797Z,99574.77
2019-03-06T01:31:40.215Z,99568.75
2019-03-06T01:34:30.376Z,99572.64
2019-03-06T01:37:09.950Z,99562.55
2019-03-06T01:40:13.347Z,99563.66
2019-03-06T01:42:48.571Z,99564.16
2019-03-06T01:45:16.836Z,99559.77
2019-03-06T01:47:45.102Z,99544.77
2019-03-06T01:50:14.305Z,99543.44
2019-03-06T01:52:42.684Z,99536.44
2019-03-06T01:55:13.492Z,99529.92
2019-03-06T01:57:42.170Z,99520.33
2019-03-06T02:00:15.276Z,99513.95
2019-03-06T02:02:43.994Z,99516.56
2019-03-06T02:05:12.694Z,99512.47
2019-03-06T02:07:42.327Z,99503.97
2019-03-06T02:10:11.208Z,99501.69
2019-03-06T02:12:39.282Z,99495.34
2019-03-06T02:15:08.933Z,99482.16
2019-03-06T02:17:38.201Z,99484.09
2019-03-06T02:20:09.291Z,99482.78
2019-03-06T02:22:37.344Z,99466.84
2019-03-06T02:25:06.563Z,99465.87
2019-03-06T02:27:34.589Z,99464.87
2019-03-06T02:30:05.864Z,99465.68
2019-03-06T02:32:33.988Z,99460.15
2019-03-06T02:35:05.766Z,99457.55
2019-03-06T02:37:33.825Z,99463.55
2019-03-06T02:40:02.092Z,99464.05
2019-03-06T02:42:31.436Z,99459.00
2019-03-06T02:45:00.648Z,99453.14
2019-03-06T02:47:30.243Z,99450.68
2019-03-06T02:49:58.296Z,99445.80
2019-03-06T02:52:26.575Z,99442.69
2019-03-06T02:54:54.867Z,99438.13
2019-03-06T02:57:23.003Z,99438.95
2019-03-06T03:00:00.738Z,99440.09
2019-03-06T03:02:36.096Z,99440.58
2019-03-06T03:05:41.769Z,99435.38
2019-03-06T03:08:09.773Z,99439.44
2019-03-06T03:10:37.845Z,99445.44
2019-03-06T03:13:05.872Z,99452.60
2019-03-06T03:15:33.942Z,99452.28
2019-03-06T03:18:01.969Z,99452.09
2019-03-06T03:20:30.132Z,99448.84
2019-03-06T03:22:58.294Z,99449.16
2019-03-06T03:25:26.692Z,99441.84
2019-03-06T03:27:55.023Z,99432.56
2019-03-06T03:30:23.116Z,99437.61
2019-03-06T03:32:51.143Z,99442.33
2019-03-06T03:35:19.197Z,99441.52
2019-03-06T03:37:47.260Z,99442.98
2019-03-06T03:40:15.850Z,99449.00
2019-03-06T03:42:43.883Z,99444.73
2019-03-06T03:45:12.104Z,99445.07
2019-03-06T03:47:42.476Z,99450.60
2019-03-06T03:50:10.521Z,99449.76
2019-03-06T03:52:38.960Z,99445.37
2019-03-06T03:55:07.696Z,99441.47
2019-03-06T03:57:35.979Z,99443.75
2019-03-06T04:00:07.092Z,99446.34
2019-03-06T04:02:35.437Z,99451.23
2019-03-06T04:05:04.222Z,99455.27
2019-03-06T04:07:32.284Z,99456.24
2019-03-06T04:10:00.538Z,99461.45
2019-03-06T04:12:28.670Z,99462.09
2019-03-06T04:14:56.711Z,99457.05
2019-03-06T04:17:26.262Z,99449.73
2019-03-06T04:19:54.809Z,99438.33
2019-03-06T04:22:22.886Z,99420.27
2019-03-06T04:24:50.881Z,99411.63
2019-03-06T04:27:18.940Z,99404.97
2019-03-06T04:29:47.099Z,99417.00
2019-03-06T04:32:15.171Z,99415.99
2019-03-06T04:34:43.223Z,99418.11
2019-03-06T04:37:11.312Z,99414.02
2019-03-06T04:39:39.336Z,99420.03
2019-03-06T04:42:07.383Z,99413.16
2019-03-06T04:44:35.476Z,99405.04
2019-03-06T04:47:03.853Z,99402.60
2019-03-06T04:49:31.874Z,99395.61
2019-03-06T04:52:00.281Z,99388.78
2019-03-06T04:54:29.428Z,99395.61
2019-03-06T04:56:57.485Z,99389.24
2019-03-06T04:59:25.630Z,99387.62
2019-03-06T05:01:53.652Z,99384.20
2019-03-06T05:04:21.697Z,99378.35
2019-03-06T05:06:49.773Z,99368.80
2019-03-06T05:09:17.792Z,99358.84
2019-03-06T05:11:45.824Z,99355.11
2019-03-06T05:14:13.894Z,99350.56
2019-03-06T05:17:16.780Z,99345.33
2019-03-06T05:19:44.833Z,99341.92
2019-03-06T05:22:12.880Z,99340.42
2019-03-06T05:24:40.895Z,99336.36
2019-03-06T05:27:10.017Z,99339.61
2019-03-06T05:29:38.439Z,99333.89
2019-03-06T05:32:31.938Z,99346.08
2019-03-06T05:35:35.295Z,99342.67
2019-03-06T05:38:27.694Z,99339.91
2019-03-06T05:40:56.077Z,99325.42
2019-03-06T05:43:25.268Z,99332.70
2019-03-06T05:45:53.346Z,99332.53
2019-03-06T05:48:21.386Z,99324.73
2019-03-06T05:50:49.465Z,99333.83
2019-03-06T05:53:17.642Z,99325.67
2019-03-06T05:55:45.669Z,99328.31
2019-03-06T05:58:14.083Z,99329.77
2019-03-06T06:00:42.132Z,99319.38
2019-03-06T06:03:10.134Z,99307.22
2019-03-06T06:05:38.217Z,99302.02
2019-03-06T06:08:06.340Z,99303.45
2019-03-06T06:10:34.698Z,99303.62
2019-03-06T06:13:02.742Z,99294.84
2019-03-06T06:15:30.820Z,99295.17
2019-03-06T06:17:58.841Z,99288.67
2019-03-06T06:20:26.887Z,99290.46
2019-03-06T06:23:17.063Z,99297.77
2019-03-06T06:25:45.121Z,99297.58
2019-03-06T06:28:13.177Z,99294.16
2019-03-06T06:30:41.224Z,99299.03
2019-03-06T06:33:09.668Z,99299.52
2019-03-06T06:35:37.725Z,99302.45
2019-03-06T06:38:05.771Z,99299.23
2019-03-06T06:40:35.690Z,99298.42
2019-03-06T06:43:03.756Z,99295.98
2019-03-06T06:45:32.158Z,99286.75
2019-03-06T06:48:11.279Z,99286.92
2019-03-06T06:50:46.921Z,99283.17
2019-03-06T06:53:50.854Z,99284.34
2019-03-06T06:57:14.142Z,99290.84
2019-03-06T07:00:50.504Z,99288.27
2019-03-06T07:04:22.292Z,99275.63
2019-03-06T07:07:03.129Z,99279.54
2019-03-06T07:09:49.038Z,99269.31
2019-03-06T07:12:22.859Z,99274.20
2019-03-06T07:15:19.801Z,99275.52
2019-03-06T07:17:57.231Z,99260.91
2019-03-06T07:20:48.217Z,99264.00
2019-03-06T07:23:36.713Z,99262.87
2019-03-06T07:26:17.702Z,99269.22
2019-03-06T07:29:14.211Z,99259.94
2019-03-06T07:32:01.890Z,99261.76
2019-03-06T07:34:42.247Z,99254.75
2019-03-06T07:37:14.320Z,99252.64
2019-03-06T07:39:58.443Z,99249.85
2019-03-06T07:42:52.202Z,99252.27
2019-03-06T07:46:05.776Z,99249.33
2019-03-06T07:49:06.349Z,99249.75
2019-03-06T07:52:03.308Z,99248.83
2019-03-06T07:54:40.036Z,99242.38
2019-03-06T07:57:36.997Z,99241.89
2019-03-06T08:00:16.521Z,99234.73
2019-03-06T08:03:26.500Z,99228.31
2019-03-06T08:05:55.132Z,99223.03
2019-03-06T08:08:23.192Z,99208.61
2019-03-06T08:10:52.712Z,99211.49
2019-03-06T08:13:34.209Z,99206.17
2019-03-06T08:16:23.067Z,99206.98
2019-03-06T08:19:02.335Z,99198.52
2019-03-06T08:21:45.156Z,99188.09
2019-03-06T08:24:28.188Z,99191.46
2019-03-06T08:26:56.339Z,99184.09
2019-03-06T08:29:24.601Z,99186.36
2019-03-06T08:31:55.431Z,99175.09
2019-03-06T08:34:24.935Z,99167.59
2019-03-06T08:36:53.367Z,99158.25
2019-03-06T08:39:24.470Z,99151.45
2019-03-06T08:41:52.655Z,99149.95
2019-03-06T08:44:21.724Z,99148.52
2019-03-06T08:47:10.189Z,99137.09
2019-03-06T08:49:57.872Z,99130.00
2019-03-06T08:52:33.219Z,99117.22
2019-03-06T08:55:26.730Z,99115.09
2019-03-06T08:58:04.334Z,99109.43
2019-03-06T09:00:46.827Z,99106.45
2019-03-06T09:03:35.219Z,99111.83
2019-03-06T09:06:12.579Z,99110.31
2019-03-06T09:09:13.395Z,99110.27
2019-03-06T09:12:06.814Z,99106.95
2019-03-06T09:14:46.311Z,99105.55
2019-03-06T09:17:26.727Z,99103.30
2019-03-06T09:20:14.945Z,99094.72
2019-03-06T09:22:50.901Z,99089.45
2019-03-06T09:25:39.669Z,99081.03
2019-03-06T09:28:27.364Z,99082.11
2019-03-06T09:31:04.321Z,99081.15
2019-03-06T09:33:45.032Z,99083.06
2019-03-06T09:36:36.189Z,99079.67
2019-03-06T09:39:43.066Z,99071.86
2019-03-06T09:42:33.480Z,99068.50
2019-03-06T09:45:10.014Z,99070.29
2019-03-06T09:47:53.274Z,99072.92
2019-03-06T09:50:28.260Z,99070.39
2019-03-06T09:53:14.088Z,99063.23
2019-03-06T09:55:52.667Z,99064.98
2019-03-06T09:58:43.205Z,99057.39
2019-03-06T10:01:21.084Z,99053.03
2019-03-06T10:04:11.306Z,99049.56
2019-03-06T10:06:57.580Z,99042.55
2019-03-06T10:10:00.628Z,99039.36
2019-03-06T10:12:47.719Z,99034.78
2019-03-06T10:15:29.415Z,99023.97
2019-03-06T10:18:01.353Z,99020.45
2019-03-06T10:20:29.598Z,99010.95
2019-03-06T10:22:59.644Z,99007.03
2019-03-06T10:25:30.593Z,99001.45
2019-03-06T10:28:06.160Z,98997.48
2019-03-06T10:30:29.319Z,98985.59
2019-03-06T10:32:57.393Z,98987.56
2019-03-06T10:35:25.473Z,98982.66
2019-03-06T10:37:53.810Z,98983.69
2019-03-06T10:40:21.843Z,98981.39
2019-03-06T10:42:50.289Z,98977.39
2019-03-06T10:45:19.778Z,98970.28
2019-03-06T10:47:48.230Z,98963.22
2019-03-06T10:50:26.193Z,98955.98
2019-03-06T10:52:47.688Z,98945.46
2019-03-06T10:55:16.411Z,98951.45
2019-03-06T10:57:44.873Z,98942.64
2019-03-06T11:00:19.708Z,98934.28
2019-03-06T11:02:48.208Z,98931.99
2019-03-06T11:05:35.576Z,98921.74
2019-03-06T11:08:05.781Z,98913.80
2019-03-06T11:10:34.803Z,98924.44
2019-03-06T11:13:08.795Z,98919.87
2019-03-06T11:15:39.146Z,98916.85
2019-03-06T11:18:08.355Z,98911.47
2019-03-06T11:20:36.613Z,98909.40
2019-03-06T11:23:06.531Z,98910.06
2019-03-06T11:25:36.713Z,98899.30
2019-03-06T11:28:08.627Z,98897.83
2019-03-06T11:30:49.580Z,98890.73
2019-03-06T11:33:20.823Z,98891.03
2019-03-06T11:35:52.384Z,98884.97
2019-03-06T11:38:21.188Z,98877.03
2019-03-06T11:40:51.046Z,98875.19
2019-03-06T11:43:20.358Z,98864.28
2019-03-06T11:45:48.415Z,98869.86
2019-03-06T11:48:16.582Z,98861.56
2019-03-06T11:50:45.069Z,98863.42
2019-03-06T11:53:13.232Z,98856.20
2019-03-06T11:55:42.458Z,98850.27
2019-03-06T11:58:14.661Z,98844.84
2019-03-06T12:00:43.749Z,98848.55
2019-03-06T12:03:13.871Z,98843.95
2019-03-06T12:05:42.096Z,98845.45
2019-03-06T12:08:12.680Z,98836.77
2019-03-06T12:10:41.106Z,98831.73
2019-03-06T12:13:11.883Z,98831.25
2019-03-06T12:15:43.416Z,98824.14
2019-03-06T12:18:12.171Z,98819.41
2019-03-06T12:20:40.306Z,98821.16
2019-03-06T12:23:08.431Z,98811.97
2019-03-06T12:25:37.214Z,98812.55
2019-03-06T12:28:08.990Z,98808.49
2019-03-06T12:30:39.383Z,98803.84
2019-03-06T12:33:09.480Z,98798.03
2019-03-06T12:35:37.741Z,98795.44
2019-03-06T12:38:05.787Z,98788.66
2019-03-06T12:40:34.169Z,98790.92
2019-03-06T12:43:02.191Z,98785.32
2019-03-06T12:45:30.816Z,98785.88
2019-03-06T12:47:59.764Z,98778.86
2019-03-06T12:50:29.119Z,98779.20
2019-03-06T12:52:57.522Z,98772.42
2019-03-06T12:55:25.865Z,98764.39
2019-03-06T12:57:59.371Z,98758.70
2019-03-06T13:00:24.173Z,98751.59
2019-03-06T13:02:52.501Z,98751.73
2019-03-06T13:05:23.205Z,98749.51
2019-03-06T13:07:51.248Z,98746.95
2019-03-06T13:10:19.835Z,98748.60
2019-03-06T13:12:48.600Z,98745.63
2019-03-06T13:15:21.293Z,98739.59
2019-03-06T13:17:49.727Z,98732.80
2019-03-06T13:20:17.932Z,98724.57
2019-03-06T13:22:46.389Z,98720.92
2019-03-06T13:25:20.850Z,98717.99
2019-03-06T13:27:54.828Z,98706.48
2019-03-06T13:30:21.509Z,98709.95
2019-03-06T13:33:15.147Z,98709.19
2019-03-06T13:35:43.382Z,98711.32
2019-03-06T13:38:11.449Z,98709.19
2019-03-06T13:40:39.504Z,98709.22
2019-03-06T13:43:07.523Z,98709.59
2019-03-06T13:45:35.657Z,98708.39
2019-03-06T13:48:03.819Z,98702.35
2019-03-06T13:50:31.853Z,98697.59
2019-03-06T13:53:00.177Z,98691.20
2019-03-06T13:55:28.479Z,98690.45
2019-03-06T13:57:56.898Z,98681.17
2019-03-06T14:00:25.193Z,98678.88
2019-03-06T14:02:53.267Z,98679.73
2019-03-06T14:05:23.574Z,98682.39
2019-03-06T14:07:56.525Z,98680.25
2019-03-06T14:10:22.216Z,98684.27
2019-03-06T14:12:50.702Z,98678.66
2019-03-06T14:15:20.851Z,98675.45
2019-03-06T14:17:49.229Z,98673.09
2019-03-06T14:20:18.169Z,98668.81
2019-03-06T14:22:46.247Z,98671.76
2019-03-06T14:25:15.168Z,98669.61
2019-03-06T14:27:43.624Z,98662.14
2019-03-06T14:30:13.365Z,98656.81
2019-03-06T14:32:41.484Z,98650.97
2019-03-06T14:35:10.016Z,98647.52
2019-03-06T14:37:38.166Z,98644.02
2019-03-06T14:40:12.100Z,98641.64
2019-03-06T14:42:40.456Z,98641.39
2019-03-06T14:45:12.066Z,98637.67
2019-03-06T14:47:40.286Z,98632.59
2019-03-06T14:50:08.442Z,98634.48
2019-03-06T14:52:36.747Z,98632.38
2019-03-06T14:55:06.119Z,98618.77
2019-03-06T14:57:34.481Z,98624.11
2019-03-06T15:00:03.133Z,98619.86
2019-03-06T15:02:31.549Z,98618.53
2019-03-06T15:04:59.585Z,98604.98
2019-03-06T15:07:27.698Z,98603.66
2019-03-06T15:09:55.858Z,98602.09
2019-03-06T15:12:24.084Z,98603.14
2019-03-06T15:14:52.124Z,98594.09
2019-03-06T15:17:21.284Z,98596.19
2019-03-06T15:19:49.379Z,98594.88
2019-03-06T15:22:17.734Z,98596.19
2019-03-06T15:24:46.246Z,98590.35
2019-03-06T15:27:14.683Z,98586.61
2019-03-06T15:29:43.190Z,98583.41
2019-03-06T15:32:11.287Z,98584.22
2019-03-06T15:34:40.557Z,98579.69
2019-03-06T15:37:08.652Z,98575.70
2019-03-06T15:39:44.646Z,98576.48
2019-03-06T15:42:09.789Z,98568.52
2019-03-06T15:44:38.026Z,98559.75
2019-03-06T15:47:06.400Z,98559.48
2019-03-06T15:49:34.713Z,98566.66
2019-03-06T15:52:04.740Z,98563.98
2019-03-06T15:54:32.816Z,98564.80
2019-03-06T15:57:01.277Z,98560.00
2019-03-06T15:59:29.339Z,98549.11
2019-03-06T16:01:57.485Z,98552.30
2019-03-06T16:04:25.505Z,98549.64
2019-03-06T16:06:54.353Z,98545.13
2019-03-06T16:09:23.776Z,98537.16
2019-03-06T16:11:52.125Z,98537.41
2019-03-06T16:14:21.351Z,98539.00
2019-03-06T16:16:49.771Z,98523.59
2019-03-06T16:19:18.144Z,98525.20
2019-03-06T16:21:46.237Z,98523.61
2019-03-06T16:24:14.529Z,98515.88
2019-03-06T16:26:42.549Z,98515.89
2019-03-06T16:29:10.584Z,98509.50
2019-03-06T16:31:38.995Z,98516.65
2019-03-06T16:34:07.296Z,98511.85
2019-03-06T16:36:35.350Z,98507.84
2019-03-06T16:39:06.030Z,98505.97
2019-03-06T16:41:34.970Z,98501.17
2019-03-06T16:44:03.060Z,98499.30
2019-03-06T16:46:31.534Z,98510.69
2019-03-06T16:48:59.998Z,98519.16
2019-03-06T16:51:28.029Z,98503.74
2019-03-06T16:53:56.298Z,98506.91
2019-03-06T16:56:24.767Z,98498.88
2019-03-06T16:58:52.858Z,98499.37
2019-03-06T17:01:23.705Z,98499.61
2019-03-06T17:03:51.884Z,98497.92
2019-03-06T17:06:21.516Z,98497.61
2019-03-06T17:08:49.768Z,98502.87
2019-03-06T17:11:18.045Z,98493.51
2019-03-06T17:14:09.342Z,98498.23
2019-03-06T17:16:37.369Z,98488.33
2019-03-06T17:19:05.714Z,98480.05
2019-03-06T17:21:33.967Z,98474.67
2019-03-06T17:24:02.197Z,98451.83
2019-03-06T17:26:30.224Z,98441.94
2019-03-06T17:29:09.303Z,98432.05
2019-03-06T17:31:37.324Z,98429.06
2019-03-06T17:34:05.756Z,98418.88
2019-03-06T17:36:34.074Z,98423.27
2019-03-06T17:39:03.922Z,98417.05
2019-03-06T17:41:33.938Z,98427.02
2019-03-06T17:44:02.036Z,98418.95
2019-03-06T17:46:30.088Z,98414.09
2019-03-06T17:48:58.566Z,98415.33
2019-03-06T17:51:26.760Z,98417.63
2019-03-06T17:53:55.490Z,98420.45
2019-03-06T17:56:23.578Z,98421.19
2019-03-06T17:58:51.660Z,98420.09
2019-03-06T18:01:20.094Z,98417.13
2019-03-06T18:03:57.646Z,98412.88
2019-03-06T18:06:25.667Z,98406.22
2019-03-06T18:08:53.761Z,98405.65
2019-03-06T18:11:23.650Z,98404.28
2019-03-06T18:13:52.337Z,98400.81
2019-03-06T18:16:20.529Z,98401.28
2019-03-06T18:18:48.634Z,98393.86
2019-03-06T18:21:16.726Z,98400.67
2019-03-06T18:23:44.922Z,98398.47
2019-03-06T18:26:13.038Z,98400.81
2019-03-06T18:28:41.120Z,98394.41
2019-03-06T18:31:09.211Z,98395.16
2019-03-06T18:33:37.581Z,98394.06
2019-03-06T18:36:05.666Z,98395.05
2019-03-06T18:38:33.676Z,98393.13
2019-03-06T18:41:01.977Z,98392.28
2019-03-06T18:43:30.013Z,98379.05
2019-03-06T18:45:58.113Z,98386.42
2019-03-06T18:48:26.370Z,98382.41
2019-03-06T18:50:54.788Z,98376.03
2019-03-06T18:53:24.791Z,98386.27
2019-03-06T18:55:52.891Z,98380.84
2019-03-06T18:58:20.998Z,98373.36
2019-03-06T19:00:50.337Z,98361.43
2019-03-06T19:03:18.344Z,98366.62
2019-03-06T19:05:46.447Z,98365.98
2019-03-06T19:08:15.051Z,98360.37
2019-03-06T19:10:43.100Z,98351.05
2019-03-06T19:13:12.472Z,98359.70
2019-03-06T19:15:40.991Z,98360.09
2019-03-06T19:18:09.384Z,98359.95
2019-03-06T19:20:37.476Z,98351.91
2019-03-06T19:23:05.500Z,98345.53
2019-03-06T19:25:34.265Z,98350.70
2019-03-06T19:28:02.715Z,98348.77
2019-03-06T19:30:30.819Z,98342.11
2019-03-06T19:32:58.897Z,98349.19
2019-03-06T19:35:27.370Z,98347.80
2019-03-06T19:37:55.559Z,98345.35
2019-03-06T19:40:24.000Z,98357.88
2019-03-06T19:42:52.126Z,98350.38
2019-03-06T19:45:21.027Z,98355.03
2019-03-06T19:47:50.597Z,98359.16
2019-03-06T19:50:20.444Z,98354.65
2019-03-06T19:52:48.463Z,98351.14
2019-03-06T19:55:17.649Z,98356.66
2019-03-06T19:57:56.615Z,98348.20
2019-03-06T20:00:25.707Z,98350.03
2019-03-06T20:02:54.157Z,98345.04
2019-03-06T20:05:26.361Z,98343.20
2019-03-06T20:07:54.432Z,98338.66
2019-03-06T20:10:23.289Z,98343.62
2019-03-06T20:12:51.564Z,98347.18
2019-03-06T20:15:19.648Z,98341.36
2019-03-06T20:17:47.717Z,98336.78
2019-03-06T20:20:17.393Z,98338.34
2019-03-06T20:22:45.939Z,98333.52
2019-03-06T20:25:15.288Z,98340.06
2019-03-06T20:27:43.486Z,98332.68
2019-03-06T20:30:13.510Z,98335.55
2019-03-06T20:32:41.735Z,98330.45
2019-03-06T20:35:09.964Z,98333.28
2019-03-06T20:37:37.994Z,98327.95
2019-03-06T20:40:06.895Z,98316.34
2019-03-06T20:42:35.208Z,98319.73
2019-03-06T20:45:04.192Z,98318.34
2019-03-06T20:47:32.322Z,98313.84
2019-03-06T20:50:01.423Z,98303.27
2019-03-06T20:52:29.440Z,98303.47
2019-03-06T20:54:57.617Z,98289.71
2019-03-06T20:57:26.242Z,98280.70
2019-03-06T20:59:54.505Z,98280.66
2019-03-06T21:02:22.694Z,98284.78
2019-03-06T21:04:52.653Z,98292.39
2019-03-06T21:07:20.794Z,98316.04
2019-03-06T21:09:49.939Z,98319.70
2019-03-06T21:12:18.047Z,98319.11
2019-03-06T21:14:46.091Z,98319.94
2019-03-06T21:17:14.263Z,98310.42
2019-03-06T21:19:42.468Z,98303.33
2019-03-06T21:22:11.543Z,98309.91
2019-03-06T21:24:39.632Z,98308.90
2019-03-06T21:27:07.829Z,98305.52
2019-03-06T21:29:37.091Z,98303.44
2019-03-06T21:32:05.314Z,98307.91
2019-03-06T21:34:33.692Z,98302.13
2019-03-06T21:37:02.265Z,98314.25
2019-03-06T21:39:31.419Z,98311.58
2019-03-06T21:41:59.576Z,98309.98
2019-03-06T21:44:28.898Z,98309.42
2019-03-06T21:46:57.091Z,98303.05
2019-03-06T21:49:26.520Z,98288.77
2019-03-06T21:51:54.833Z,98293.16
2019-03-06T21:54:22.843Z,98294.38
2019-03-06T21:56:51.240Z,98287.97
2019-03-06T21:59:21.276Z,98291.23
2019-03-06T22:01:49.362Z,98291.11
2019-03-06T22:04:17.419Z,98297.25
2019-03-06T22:06:45.477Z,98298.16
2019-03-06T22:09:14.794Z,98298.79
2019-03-06T22:11:43.143Z,98295.98
2019-03-06T22:14:11.430Z,98297.12
2019-03-06T22:16:39.510Z,98294.09
2019-03-06T22:19:07.635Z,98294.98
2019-03-06T22:21:37.182Z,98294.86
2019-03-06T22:24:05.396Z,98297.43
2019-03-06T22:26:33.419Z,98292.04
2019-03-06T22:29:01.458Z,98286.69
2019-03-06T22:31:30.116Z,98286.03
2019-03-06T22:33:58.134Z,98281.44
2019-03-06T22:36:26.388Z,98276.66
2019-03-06T22:38:54.491Z,98278.86
2019-03-06T22:41:24.474Z,98270.33
2019-03-06T22:43:52.674Z,98264.37
2019-03-06T22:46:20.703Z,98262.34
2019-03-06T22:48:48.753Z,98264.32
2019-03-06T22:51:16.821Z,98253.62
2019-03-06T22:53:44.824Z,98246.20
2019-03-06T22:56:13.177Z,98250.28
2019-03-06T22:58:41.173Z,98247.31
2019-03-06T23:01:26.134Z,98238.24
2019-03-06T23:03:56.441Z,98237.90
2019-03-06T23:06:24.932Z,98245.63
2019-03-06T23:08:52.985Z,98243.66
2019-03-06T23:11:21.820Z,98260.66
2019-03-06T23:13:49.822Z,98254.46
2019-03-06T23:16:17.861Z,98264.90
2019-03-06T23:18:45.903Z,98249.58
2019-03-06T23:21:14.874Z,98239.25
2019-03-06T23:23:44.029Z,98240.70
2019-03-06T23:26:12.137Z,98184.52
2019-03-06T23:28:40.195Z,98250.53
2019-03-06T23:31:08.237Z,98187.23
2019-03-06T23:33:36.642Z,98200.25
2019-03-06T23:36:04.697Z,98205.95
2019-03-06T23:38:33.037Z,98215.64
2019-03-06T23:41:01.094Z,98208.80
2019-03-06T23:43:29.144Z,98187.02
2019-03-06T23:45:57.208Z,98168.66
2019-03-06T23:48:26.341Z,98157.95
2019-03-06T23:50:54.372Z,98165.02
2019-03-06T23:53:29.463Z,98161.50
2019-03-06T23:55:59.107Z,98182.20
2019-03-06T23:58:27.198Z,98177.98
